sensor_id;sensor_type;location;lat;lon;timestamp;P1;durP1;ratioP1;P2;durP2;ratioP2
39728;SDS011;25402;42.004;23.088;2022-09-09T00:02:12;12.85;;;9.65;;
39728;SDS011;25402;42.004;23.088;2022-09-09T00:04:47;13.35;;;9.38;;
39728;SDS011;25402;42.004;23.088;2022-09-09T00:07:31;18.05;;;9.90;;
39728;SDS011;25402;42.004;23.088;2022-09-09T00:10:09;12.88;;;9.15;;
39728;SDS011;25402;42.004;23.088;2022-09-09T00:12:47;15.38;;;10.18;;
39728;SDS011;25402;42.004;23.088;2022-09-09T00:15:22;14.73;;;9.35;;
39728;SDS011;25402;42.004;23.088;2022-09-09T00:17:53;12.10;;;8.93;;
39728;SDS011;25402;42.004;23.088;2022-09-09T00:20:24;15.65;;;9.32;;
39728;SDS011;25402;42.004;23.088;2022-09-09T00:23:00;12.95;;;9.38;;
39728;SDS011;25402;42.004;23.088;2022-09-09T00:25:34;15.30;;;8.80;;
39728;SDS011;25402;42.004;23.088;2022-09-09T00:28:08;18.83;;;10.40;;
39728;SDS011;25402;42.004;23.088;2022-09-09T00:30:44;15.93;;;10.18;;
39728;SDS011;25402;42.004;23.088;2022-09-09T00:33:13;10.90;;;8.77;;
39728;SDS011;25402;42.004;23.088;2022-09-09T00:35:44;16.73;;;9.98;;
39728;SDS011;25402;42.004;23.088;2022-09-09T00:38:15;12.80;;;9.50;;
39728;SDS011;25402;42.004;23.088;2022-09-09T00:40:47;14.48;;;9.23;;
39728;SDS011;25402;42.004;23.088;2022-09-09T00:43:23;17.52;;;9.85;;
39728;SDS011;25402;42.004;23.088;2022-09-09T00:46:14;11.75;;;10.07;;
39728;SDS011;25402;42.004;23.088;2022-09-09T00:49:12;15.07;;;11.00;;
39728;SDS011;25402;42.004;23.088;2022-09-09T00:51:47;18.73;;;10.07;;
39728;SDS011;25402;42.004;23.088;2022-09-09T00:54:26;17.55;;;9.32;;
39728;SDS011;25402;42.004;23.088;2022-09-09T00:57:03;13.48;;;9.77;;
39728;SDS011;25402;42.004;23.088;2022-09-09T00:59:43;19.05;;;9.07;;
39728;SDS011;25402;42.004;23.088;2022-09-09T01:02:17;15.75;;;9.80;;
39728;SDS011;25402;42.004;23.088;2022-09-09T01:04:54;16.98;;;10.10;;
39728;SDS011;25402;42.004;23.088;2022-09-09T01:07:24;14.60;;;9.65;;
39728;SDS011;25402;42.004;23.088;2022-09-09T01:09:54;13.90;;;9.20;;
39728;SDS011;25402;42.004;23.088;2022-09-09T01:12:29;13.05;;;9.10;;
39728;SDS011;25402;42.004;23.088;2022-09-09T01:15:08;15.50;;;10.57;;
39728;SDS011;25402;42.004;23.088;2022-09-09T01:20:10;14.23;;;9.45;;
39728;SDS011;25402;42.004;23.088;2022-09-09T01:22:44;14.13;;;9.38;;
39728;SDS011;25402;42.004;23.088;2022-09-09T01:25:29;16.73;;;9.55;;
39728;SDS011;25402;42.004;23.088;2022-09-09T01:28:26;16.17;;;10.23;;
39728;SDS011;25402;42.004;23.088;2022-09-09T01:30:54;15.43;;;10.48;;
39728;SDS011;25402;42.004;23.088;2022-09-09T01:33:23;21.48;;;9.65;;
39728;SDS011;25402;42.004;23.088;2022-09-09T01:35:52;13.35;;;9.13;;
39728;SDS011;25402;42.004;23.088;2022-09-09T01:38:22;14.98;;;9.70;;
39728;SDS011;25402;42.004;23.088;2022-09-09T01:40:51;14.90;;;9.40;;
39728;SDS011;25402;42.004;23.088;2022-09-09T01:43:19;18.42;;;9.93;;
39728;SDS011;25402;42.004;23.088;2022-09-09T01:45:48;19.42;;;9.13;;
39728;SDS011;25402;42.004;23.088;2022-09-09T01:48:19;13.45;;;9.60;;
39728;SDS011;25402;42.004;23.088;2022-09-09T01:50:49;14.40;;;10.00;;
39728;SDS011;25402;42.004;23.088;2022-09-09T01:53:16;15.85;;;11.25;;
39728;SDS011;25402;42.004;23.088;2022-09-09T01:55:45;17.95;;;11.75;;
39728;SDS011;25402;42.004;23.088;2022-09-09T01:58:24;19.42;;;10.48;;
39728;SDS011;25402;42.004;23.088;2022-09-09T02:01:02;22.50;;;11.55;;
39728;SDS011;25402;42.004;23.088;2022-09-09T02:03:35;11.65;;;10.40;;
39728;SDS011;25402;42.004;23.088;2022-09-09T02:06:04;14.82;;;10.05;;
39728;SDS011;25402;42.004;23.088;2022-09-09T02:08:42;16.02;;;10.25;;
39728;SDS011;25402;42.004;23.088;2022-09-09T02:11:13;17.23;;;10.93;;
39728;SDS011;25402;42.004;23.088;2022-09-09T02:13:42;17.63;;;10.40;;
39728;SDS011;25402;42.004;23.088;2022-09-09T02:16:12;16.42;;;9.93;;
39728;SDS011;25402;42.004;23.088;2022-09-09T02:21:14;15.13;;;10.40;;
39728;SDS011;25402;42.004;23.088;2022-09-09T02:23:43;14.35;;;10.13;;
39728;SDS011;25402;42.004;23.088;2022-09-09T02:26:14;19.45;;;10.63;;
39728;SDS011;25402;42.004;23.088;2022-09-09T02:28:46;24.00;;;11.00;;
39728;SDS011;25402;42.004;23.088;2022-09-09T02:31:18;18.67;;;10.73;;
39728;SDS011;25402;42.004;23.088;2022-09-09T02:33:50;22.63;;;11.45;;
39728;SDS011;25402;42.004;23.088;2022-09-09T02:36:20;16.73;;;10.65;;
39728;SDS011;25402;42.004;23.088;2022-09-09T02:38:49;22.48;;;10.23;;
39728;SDS011;25402;42.004;23.088;2022-09-09T02:41:19;17.05;;;10.05;;
39728;SDS011;25402;42.004;23.088;2022-09-09T02:43:49;19.40;;;10.10;;
39728;SDS011;25402;42.004;23.088;2022-09-09T02:46:23;19.00;;;9.98;;
39728;SDS011;25402;42.004;23.088;2022-09-09T02:48:59;23.40;;;11.02;;
39728;SDS011;25402;42.004;23.088;2022-09-09T02:51:30;30.08;;;12.43;;
39728;SDS011;25402;42.004;23.088;2022-09-09T02:54:04;17.45;;;10.77;;
39728;SDS011;25402;42.004;23.088;2022-09-09T02:56:39;15.07;;;10.40;;
39728;SDS011;25402;42.004;23.088;2022-09-09T02:59:12;22.02;;;11.35;;
39728;SDS011;25402;42.004;23.088;2022-09-09T03:01:41;14.25;;;10.70;;
39728;SDS011;25402;42.004;23.088;2022-09-09T03:04:09;16.73;;;10.98;;
39728;SDS011;25402;42.004;23.088;2022-09-09T03:06:36;16.25;;;10.93;;
39728;SDS011;25402;42.004;23.088;2022-09-09T03:09:03;20.75;;;11.80;;
39728;SDS011;25402;42.004;23.088;2022-09-09T03:11:30;18.58;;;10.85;;
39728;SDS011;25402;42.004;23.088;2022-09-09T03:13:57;22.48;;;12.57;;
39728;SDS011;25402;42.004;23.088;2022-09-09T03:16:24;19.67;;;12.65;;
39728;SDS011;25402;42.004;23.088;2022-09-09T03:18:52;24.88;;;13.32;;
39728;SDS011;25402;42.004;23.088;2022-09-09T03:21:19;34.90;;;11.77;;
39728;SDS011;25402;42.004;23.088;2022-09-09T03:23:46;12.68;;;10.25;;
39728;SDS011;25402;42.004;23.088;2022-09-09T03:26:13;24.13;;;11.30;;
39728;SDS011;25402;42.004;23.088;2022-09-09T03:28:41;18.23;;;11.15;;
39728;SDS011;25402;42.004;23.088;2022-09-09T03:31:08;21.38;;;12.45;;
39728;SDS011;25402;42.004;23.088;2022-09-09T03:33:35;22.27;;;13.10;;
39728;SDS011;25402;42.004;23.088;2022-09-09T03:36:04;18.70;;;11.65;;
39728;SDS011;25402;42.004;23.088;2022-09-09T03:38:32;17.77;;;11.75;;
39728;SDS011;25402;42.004;23.088;2022-09-09T03:41:02;25.08;;;11.52;;
39728;SDS011;25402;42.004;23.088;2022-09-09T03:43:30;33.30;;;11.55;;
39728;SDS011;25402;42.004;23.088;2022-09-09T03:45:57;21.15;;;12.65;;
39728;SDS011;25402;42.004;23.088;2022-09-09T03:48:25;16.40;;;11.30;;
39728;SDS011;25402;42.004;23.088;2022-09-09T03:50:53;24.23;;;11.55;;
39728;SDS011;25402;42.004;23.088;2022-09-09T03:53:24;20.98;;;11.13;;
39728;SDS011;25402;42.004;23.088;2022-09-09T03:55:52;17.80;;;10.52;;
39728;SDS011;25402;42.004;23.088;2022-09-09T03:58:21;20.80;;;11.20;;
39728;SDS011;25402;42.004;23.088;2022-09-09T04:00:54;26.88;;;14.63;;
39728;SDS011;25402;42.004;23.088;2022-09-09T04:03:22;28.40;;;16.63;;
39728;SDS011;25402;42.004;23.088;2022-09-09T04:05:50;37.08;;;16.45;;
39728;SDS011;25402;42.004;23.088;2022-09-09T04:08:18;10.18;;;7.78;;
39728;SDS011;25402;42.004;23.088;2022-09-09T04:10:47;16.10;;;10.20;;
39728;SDS011;25402;42.004;23.088;2022-09-09T04:13:15;15.63;;;9.82;;
39728;SDS011;25402;42.004;23.088;2022-09-09T04:15:43;19.08;;;9.15;;
39728;SDS011;25402;42.004;23.088;2022-09-09T04:18:10;14.32;;;9.15;;
39728;SDS011;25402;42.004;23.088;2022-09-09T04:20:38;13.63;;;8.88;;
39728;SDS011;25402;42.004;23.088;2022-09-09T04:23:05;27.33;;;8.98;;
39728;SDS011;25402;42.004;23.088;2022-09-09T04:25:32;18.40;;;8.88;;
39728;SDS011;25402;42.004;23.088;2022-09-09T04:28:00;15.70;;;8.85;;
39728;SDS011;25402;42.004;23.088;2022-09-09T04:30:28;14.73;;;8.80;;
39728;SDS011;25402;42.004;23.088;2022-09-09T04:32:56;22.25;;;13.32;;
39728;SDS011;25402;42.004;23.088;2022-09-09T04:35:23;17.67;;;10.25;;
39728;SDS011;25402;42.004;23.088;2022-09-09T04:37:50;51.22;;;13.75;;
39728;SDS011;25402;42.004;23.088;2022-09-09T04:40:17;88.05;;;12.48;;
39728;SDS011;25402;42.004;23.088;2022-09-09T04:42:44;32.10;;;12.93;;
39728;SDS011;25402;42.004;23.088;2022-09-09T04:45:14;59.40;;;16.38;;
39728;SDS011;25402;42.004;23.088;2022-09-09T04:47:41;41.25;;;13.40;;
39728;SDS011;25402;42.004;23.088;2022-09-09T04:50:08;37.22;;;14.30;;
39728;SDS011;25402;42.004;23.088;2022-09-09T04:52:38;27.58;;;12.10;;
39728;SDS011;25402;42.004;23.088;2022-09-09T04:55:06;17.90;;;11.43;;
39728;SDS011;25402;42.004;23.088;2022-09-09T04:57:34;16.83;;;9.93;;
39728;SDS011;25402;42.004;23.088;2022-09-09T05:00:02;25.65;;;10.98;;
39728;SDS011;25402;42.004;23.088;2022-09-09T05:02:32;35.80;;;10.13;;
39728;SDS011;25402;42.004;23.088;2022-09-09T05:04:59;18.05;;;8.35;;
39728;SDS011;25402;42.004;23.088;2022-09-09T05:07:26;33.55;;;9.18;;
39728;SDS011;25402;42.004;23.088;2022-09-09T05:09:54;24.40;;;9.13;;
39728;SDS011;25402;42.004;23.088;2022-09-09T05:12:22;14.52;;;9.13;;
39728;SDS011;25402;42.004;23.088;2022-09-09T05:14:50;19.67;;;9.23;;
39728;SDS011;25402;42.004;23.088;2022-09-09T05:17:18;16.05;;;9.10;;
39728;SDS011;25402;42.004;23.088;2022-09-09T05:19:46;22.80;;;9.63;;
39728;SDS011;25402;42.004;23.088;2022-09-09T05:22:18;29.20;;;10.90;;
39728;SDS011;25402;42.004;23.088;2022-09-09T05:24:46;17.85;;;9.20;;
39728;SDS011;25402;42.004;23.088;2022-09-09T05:27:16;14.85;;;8.13;;
39728;SDS011;25402;42.004;23.088;2022-09-09T05:29:43;11.18;;;7.75;;
39728;SDS011;25402;42.004;23.088;2022-09-09T05:32:10;13.50;;;7.72;;
39728;SDS011;25402;42.004;23.088;2022-09-09T05:34:38;18.75;;;7.97;;
39728;SDS011;25402;42.004;23.088;2022-09-09T05:37:07;14.35;;;7.97;;
39728;SDS011;25402;42.004;23.088;2022-09-09T05:39:34;21.00;;;8.23;;
39728;SDS011;25402;42.004;23.088;2022-09-09T05:42:03;40.33;;;10.32;;
39728;SDS011;25402;42.004;23.088;2022-09-09T05:44:31;41.33;;;9.48;;
39728;SDS011;25402;42.004;23.088;2022-09-09T05:46:57;49.83;;;10.57;;
39728;SDS011;25402;42.004;23.088;2022-09-09T05:49:24;30.05;;;9.70;;
39728;SDS011;25402;42.004;23.088;2022-09-09T05:51:52;38.50;;;9.10;;
39728;SDS011;25402;42.004;23.088;2022-09-09T05:54:20;24.20;;;8.48;;
39728;SDS011;25402;42.004;23.088;2022-09-09T05:56:47;18.70;;;8.43;;
39728;SDS011;25402;42.004;23.088;2022-09-09T05:59:16;26.73;;;8.63;;
39728;SDS011;25402;42.004;23.088;2022-09-09T06:01:43;21.20;;;9.00;;
39728;SDS011;25402;42.004;23.088;2022-09-09T06:04:10;21.13;;;11.25;;
39728;SDS011;25402;42.004;23.088;2022-09-09T06:06:38;20.65;;;9.27;;
39728;SDS011;25402;42.004;23.088;2022-09-09T06:09:07;22.80;;;11.38;;
39728;SDS011;25402;42.004;23.088;2022-09-09T06:11:38;19.40;;;8.65;;
39728;SDS011;25402;42.004;23.088;2022-09-09T06:14:06;16.75;;;8.75;;
39728;SDS011;25402;42.004;23.088;2022-09-09T06:16:34;17.42;;;8.98;;
39728;SDS011;25402;42.004;23.088;2022-09-09T06:19:02;11.20;;;7.78;;
39728;SDS011;25402;42.004;23.088;2022-09-09T06:21:31;14.57;;;7.75;;
39728;SDS011;25402;42.004;23.088;2022-09-09T06:24:01;16.58;;;8.30;;
39728;SDS011;25402;42.004;23.088;2022-09-09T06:26:29;15.05;;;9.07;;
39728;SDS011;25402;42.004;23.088;2022-09-09T06:28:59;19.27;;;8.65;;
39728;SDS011;25402;42.004;23.088;2022-09-09T06:31:29;17.35;;;9.00;;
39728;SDS011;25402;42.004;23.088;2022-09-09T06:33:57;28.50;;;9.90;;
39728;SDS011;25402;42.004;23.088;2022-09-09T06:36:26;17.67;;;7.78;;
39728;SDS011;25402;42.004;23.088;2022-09-09T06:38:54;17.95;;;7.60;;
39728;SDS011;25402;42.004;23.088;2022-09-09T06:41:22;14.02;;;6.75;;
39728;SDS011;25402;42.004;23.088;2022-09-09T06:43:51;16.35;;;6.53;;
39728;SDS011;25402;42.004;23.088;2022-09-09T06:46:20;14.70;;;5.78;;
39728;SDS011;25402;42.004;23.088;2022-09-09T06:48:48;15.05;;;6.07;;
39728;SDS011;25402;42.004;23.088;2022-09-09T06:51:16;21.20;;;6.20;;
39728;SDS011;25402;42.004;23.088;2022-09-09T06:53:46;11.65;;;5.82;;
39728;SDS011;25402;42.004;23.088;2022-09-09T06:56:20;13.82;;;7.07;;
39728;SDS011;25402;42.004;23.088;2022-09-09T06:58:48;16.25;;;6.10;;
39728;SDS011;25402;42.004;23.088;2022-09-09T07:01:17;17.60;;;6.20;;
39728;SDS011;25402;42.004;23.088;2022-09-09T07:03:48;12.13;;;6.15;;
39728;SDS011;25402;42.004;23.088;2022-09-09T07:06:18;14.43;;;5.97;;
39728;SDS011;25402;42.004;23.088;2022-09-09T07:08:49;15.00;;;9.30;;
39728;SDS011;25402;42.004;23.088;2022-09-09T07:11:18;42.70;;;19.10;;
39728;SDS011;25402;42.004;23.088;2022-09-09T07:13:46;26.55;;;14.05;;
39728;SDS011;25402;42.004;23.088;2022-09-09T07:16:16;21.17;;;14.10;;
39728;SDS011;25402;42.004;23.088;2022-09-09T07:18:44;18.02;;;8.02;;
39728;SDS011;25402;42.004;23.088;2022-09-09T07:21:13;17.80;;;7.38;;
39728;SDS011;25402;42.004;23.088;2022-09-09T07:23:41;20.55;;;7.30;;
39728;SDS011;25402;42.004;23.088;2022-09-09T07:26:08;23.17;;;6.80;;
39728;SDS011;25402;42.004;23.088;2022-09-09T07:28:36;14.75;;;6.07;;
39728;SDS011;25402;42.004;23.088;2022-09-09T07:31:05;11.07;;;5.90;;
39728;SDS011;25402;42.004;23.088;2022-09-09T07:33:33;22.30;;;6.07;;
39728;SDS011;25402;42.004;23.088;2022-09-09T07:36:02;17.40;;;6.60;;
39728;SDS011;25402;42.004;23.088;2022-09-09T07:38:36;11.43;;;6.05;;
39728;SDS011;25402;42.004;23.088;2022-09-09T07:41:05;15.68;;;5.95;;
39728;SDS011;25402;42.004;23.088;2022-09-09T07:43:36;14.25;;;6.78;;
39728;SDS011;25402;42.004;23.088;2022-09-09T07:46:16;18.08;;;6.32;;
39728;SDS011;25402;42.004;23.088;2022-09-09T07:48:46;27.25;;;6.47;;
39728;SDS011;25402;42.004;23.088;2022-09-09T07:51:17;17.42;;;6.05;;
39728;SDS011;25402;42.004;23.088;2022-09-09T07:53:51;14.07;;;6.30;;
39728;SDS011;25402;42.004;23.088;2022-09-09T07:56:20;18.08;;;6.20;;
39728;SDS011;25402;42.004;23.088;2022-09-09T07:58:57;12.85;;;6.22;;
39728;SDS011;25402;42.004;23.088;2022-09-09T08:01:26;19.52;;;6.80;;
39728;SDS011;25402;42.004;23.088;2022-09-09T08:03:56;38.83;;;7.88;;
39728;SDS011;25402;42.004;23.088;2022-09-09T08:06:27;24.70;;;9.98;;
39728;SDS011;25402;42.004;23.088;2022-09-09T08:08:59;25.33;;;6.70;;
39728;SDS011;25402;42.004;23.088;2022-09-09T08:11:27;17.98;;;6.47;;
39728;SDS011;25402;42.004;23.088;2022-09-09T08:13:55;12.43;;;5.45;;
39728;SDS011;25402;42.004;23.088;2022-09-09T08:16:23;11.48;;;6.00;;
39728;SDS011;25402;42.004;23.088;2022-09-09T08:18:52;15.90;;;7.03;;
39728;SDS011;25402;42.004;23.088;2022-09-09T08:21:20;15.20;;;6.30;;
39728;SDS011;25402;42.004;23.088;2022-09-09T08:23:50;8.13;;;5.28;;
39728;SDS011;25402;42.004;23.088;2022-09-09T08:26:20;82.32;;;9.23;;
39728;SDS011;25402;42.004;23.088;2022-09-09T08:28:49;24.45;;;7.32;;
39728;SDS011;25402;42.004;23.088;2022-09-09T08:31:18;14.85;;;6.22;;
39728;SDS011;25402;42.004;23.088;2022-09-09T08:33:46;18.17;;;6.32;;
39728;SDS011;25402;42.004;23.088;2022-09-09T08:36:15;70.18;;;7.93;;
39728;SDS011;25402;42.004;23.088;2022-09-09T08:38:43;15.25;;;5.10;;
39728;SDS011;25402;42.004;23.088;2022-09-09T08:44:02;9.82;;;4.65;;
39728;SDS011;25402;42.004;23.088;2022-09-09T08:46:35;9.48;;;4.25;;
39728;SDS011;25402;42.004;23.088;2022-09-09T08:49:15;11.13;;;4.47;;
39728;SDS011;25402;42.004;23.088;2022-09-09T08:51:53;11.17;;;4.80;;
39728;SDS011;25402;42.004;23.088;2022-09-09T08:54:23;10.50;;;4.25;;
39728;SDS011;25402;42.004;23.088;2022-09-09T08:56:59;12.90;;;4.80;;
39728;SDS011;25402;42.004;23.088;2022-09-09T08:59:27;6.68;;;4.45;;
39728;SDS011;25402;42.004;23.088;2022-09-09T09:01:57;20.38;;;5.25;;
39728;SDS011;25402;42.004;23.088;2022-09-09T09:04:46;11.10;;;4.95;;
39728;SDS011;25402;42.004;23.088;2022-09-09T09:07:25;7.60;;;4.60;;
39728;SDS011;25402;42.004;23.088;2022-09-09T09:10:02;12.23;;;4.72;;
39728;SDS011;25402;42.004;23.088;2022-09-09T09:12:39;7.95;;;4.72;;
39728;SDS011;25402;42.004;23.088;2022-09-09T09:15:11;8.43;;;4.68;;
39728;SDS011;25402;42.004;23.088;2022-09-09T09:17:43;10.15;;;5.20;;
39728;SDS011;25402;42.004;23.088;2022-09-09T09:20:11;16.27;;;7.35;;
39728;SDS011;25402;42.004;23.088;2022-09-09T09:22:45;10.63;;;4.70;;
39728;SDS011;25402;42.004;23.088;2022-09-09T09:25:17;11.00;;;4.72;;
39728;SDS011;25402;42.004;23.088;2022-09-09T09:27:51;8.85;;;4.20;;
39728;SDS011;25402;42.004;23.088;2022-09-09T09:30:26;7.47;;;4.43;;
39728;SDS011;25402;42.004;23.088;2022-09-09T09:32:59;10.50;;;4.93;;
39728;SDS011;25402;42.004;23.088;2022-09-09T09:35:29;7.38;;;4.47;;
39728;SDS011;25402;42.004;23.088;2022-09-09T09:37:57;12.63;;;5.20;;
39728;SDS011;25402;42.004;23.088;2022-09-09T09:40:29;9.95;;;4.70;;
39728;SDS011;25402;42.004;23.088;2022-09-09T09:42:59;8.05;;;5.63;;
39728;SDS011;25402;42.004;23.088;2022-09-09T09:45:32;9.63;;;4.97;;
39728;SDS011;25402;42.004;23.088;2022-09-09T09:48:02;13.40;;;5.17;;
39728;SDS011;25402;42.004;23.088;2022-09-09T09:50:31;11.93;;;5.38;;
39728;SDS011;25402;42.004;23.088;2022-09-09T09:53:00;11.40;;;4.75;;
39728;SDS011;25402;42.004;23.088;2022-09-09T09:55:30;9.55;;;4.60;;
39728;SDS011;25402;42.004;23.088;2022-09-09T09:58:06;8.60;;;4.57;;
39728;SDS011;25402;42.004;23.088;2022-09-09T10:00:47;10.60;;;5.07;;
39728;SDS011;25402;42.004;23.088;2022-09-09T10:03:19;12.18;;;4.63;;
39728;SDS011;25402;42.004;23.088;2022-09-09T10:05:50;5.78;;;4.68;;
39728;SDS011;25402;42.004;23.088;2022-09-09T10:08:18;5.63;;;4.68;;
39728;SDS011;25402;42.004;23.088;2022-09-09T10:10:56;12.55;;;4.57;;
39728;SDS011;25402;42.004;23.088;2022-09-09T10:13:38;10.55;;;4.82;;
39728;SDS011;25402;42.004;23.088;2022-09-09T10:16:19;9.23;;;4.53;;
39728;SDS011;25402;42.004;23.088;2022-09-09T10:18:59;9.80;;;5.03;;
39728;SDS011;25402;42.004;23.088;2022-09-09T10:21:31;7.77;;;4.70;;
39728;SDS011;25402;42.004;23.088;2022-09-09T10:24:21;12.35;;;4.80;;
39728;SDS011;25402;42.004;23.088;2022-09-09T10:27:11;32.90;;;5.00;;
39728;SDS011;25402;42.004;23.088;2022-09-09T10:29:52;12.30;;;4.53;;
39728;SDS011;25402;42.004;23.088;2022-09-09T10:32:38;7.28;;;4.85;;
39728;SDS011;25402;42.004;23.088;2022-09-09T10:35:19;31.23;;;6.05;;
39728;SDS011;25402;42.004;23.088;2022-09-09T10:38:03;8.43;;;4.60;;
39728;SDS011;25402;42.004;23.088;2022-09-09T10:40:41;6.78;;;4.60;;
39728;SDS011;25402;42.004;23.088;2022-09-09T10:43:20;6.65;;;4.40;;
39728;SDS011;25402;42.004;23.088;2022-09-09T10:46:02;7.78;;;4.43;;
39728;SDS011;25402;42.004;23.088;2022-09-09T10:48:40;7.50;;;4.50;;
39728;SDS011;25402;42.004;23.088;2022-09-09T10:51:22;47.53;;;7.05;;
39728;SDS011;25402;42.004;23.088;2022-09-09T10:54:02;10.70;;;5.07;;
39728;SDS011;25402;42.004;23.088;2022-09-09T10:56:59;8.15;;;4.47;;
39728;SDS011;25402;42.004;23.088;2022-09-09T10:59:35;6.80;;;4.45;;
39728;SDS011;25402;42.004;23.088;2022-09-09T11:02:11;8.60;;;4.68;;
39728;SDS011;25402;42.004;23.088;2022-09-09T11:04:42;15.75;;;4.97;;
39728;SDS011;25402;42.004;23.088;2022-09-09T11:07:19;20.02;;;4.93;;
39728;SDS011;25402;42.004;23.088;2022-09-09T11:09:58;7.70;;;4.75;;
39728;SDS011;25402;42.004;23.088;2022-09-09T11:12:33;6.13;;;4.80;;
39728;SDS011;25402;42.004;23.088;2022-09-09T11:15:06;13.07;;;4.80;;
39728;SDS011;25402;42.004;23.088;2022-09-09T11:17:46;12.90;;;6.22;;
39728;SDS011;25402;42.004;23.088;2022-09-09T11:20:17;35.80;;;8.07;;
39728;SDS011;25402;42.004;23.088;2022-09-09T11:22:45;30.48;;;6.30;;
39728;SDS011;25402;42.004;23.088;2022-09-09T11:25:18;12.13;;;5.10;;
39728;SDS011;25402;42.004;23.088;2022-09-09T11:28:09;77.90;;;7.43;;
39728;SDS011;25402;42.004;23.088;2022-09-09T11:30:56;11.43;;;4.75;;
39728;SDS011;25402;42.004;23.088;2022-09-09T11:36:44;8.38;;;4.63;;
39728;SDS011;25402;42.004;23.088;2022-09-09T11:39:44;9.75;;;5.35;;
39728;SDS011;25402;42.004;23.088;2022-09-09T11:42:34;9.13;;;4.65;;
39728;SDS011;25402;42.004;23.088;2022-09-09T11:45:09;9.43;;;4.78;;
39728;SDS011;25402;42.004;23.088;2022-09-09T11:47:39;9.95;;;4.97;;
39728;SDS011;25402;42.004;23.088;2022-09-09T11:50:28;18.45;;;5.55;;
39728;SDS011;25402;42.004;23.088;2022-09-09T11:53:04;8.45;;;4.10;;
39728;SDS011;25402;42.004;23.088;2022-09-09T11:55:47;49.60;;;6.63;;
39728;SDS011;25402;42.004;23.088;2022-09-09T11:58:15;23.50;;;6.07;;
39728;SDS011;25402;42.004;23.088;2022-09-09T12:00:46;12.60;;;4.60;;
39728;SDS011;25402;42.004;23.088;2022-09-09T12:06:16;8.07;;;5.00;;
39728;SDS011;25402;42.004;23.088;2022-09-09T12:08:52;10.13;;;5.10;;
39728;SDS011;25402;42.004;23.088;2022-09-09T12:11:25;14.02;;;4.35;;
39728;SDS011;25402;42.004;23.088;2022-09-09T12:13:54;13.60;;;8.20;;
39728;SDS011;25402;42.004;23.088;2022-09-09T12:16:29;16.30;;;7.40;;
39728;SDS011;25402;42.004;23.088;2022-09-09T12:19:05;16.75;;;5.28;;
39728;SDS011;25402;42.004;23.088;2022-09-09T12:21:54;10.80;;;4.47;;
39728;SDS011;25402;42.004;23.088;2022-09-09T12:24:29;9.90;;;4.88;;
39728;SDS011;25402;42.004;23.088;2022-09-09T12:27:14;10.40;;;5.20;;
39728;SDS011;25402;42.004;23.088;2022-09-09T12:29:48;8.52;;;4.68;;
39728;SDS011;25402;42.004;23.088;2022-09-09T12:32:22;7.72;;;4.57;;
39728;SDS011;25402;42.004;23.088;2022-09-09T12:34:54;13.13;;;5.25;;
39728;SDS011;25402;42.004;23.088;2022-09-09T12:37:36;12.35;;;5.00;;
39728;SDS011;25402;42.004;23.088;2022-09-09T12:40:18;10.98;;;4.88;;
39728;SDS011;25402;42.004;23.088;2022-09-09T12:42:47;10.27;;;4.80;;
39728;SDS011;25402;42.004;23.088;2022-09-09T12:45:15;13.30;;;5.28;;
39728;SDS011;25402;42.004;23.088;2022-09-09T12:47:44;13.30;;;5.03;;
39728;SDS011;25402;42.004;23.088;2022-09-09T12:52:47;12.75;;;5.22;;
39728;SDS011;25402;42.004;23.088;2022-09-09T12:55:18;9.07;;;5.30;;
39728;SDS011;25402;42.004;23.088;2022-09-09T12:57:46;20.58;;;5.32;;
39728;SDS011;25402;42.004;23.088;2022-09-09T13:00:17;15.73;;;5.90;;
39728;SDS011;25402;42.004;23.088;2022-09-09T13:02:46;42.85;;;7.60;;
39728;SDS011;25402;42.004;23.088;2022-09-09T13:05:17;19.42;;;5.47;;
39728;SDS011;25402;42.004;23.088;2022-09-09T13:07:49;35.00;;;6.30;;
39728;SDS011;25402;42.004;23.088;2022-09-09T13:10:20;16.20;;;5.18;;
39728;SDS011;25402;42.004;23.088;2022-09-09T13:12:51;10.75;;;5.70;;
39728;SDS011;25402;42.004;23.088;2022-09-09T13:15:20;8.90;;;5.30;;
39728;SDS011;25402;42.004;23.088;2022-09-09T13:17:50;10.98;;;5.53;;
39728;SDS011;25402;42.004;23.088;2022-09-09T13:20:19;16.55;;;5.43;;
39728;SDS011;25402;42.004;23.088;2022-09-09T13:22:49;10.02;;;5.88;;
39728;SDS011;25402;42.004;23.088;2022-09-09T13:25:19;18.85;;;5.65;;
39728;SDS011;25402;42.004;23.088;2022-09-09T13:27:59;8.20;;;4.97;;
39728;SDS011;25402;42.004;23.088;2022-09-09T13:30:28;16.50;;;5.72;;
39728;SDS011;25402;42.004;23.088;2022-09-09T13:33:00;28.30;;;6.85;;
39728;SDS011;25402;42.004;23.088;2022-09-09T13:35:28;24.50;;;6.70;;
39728;SDS011;25402;42.004;23.088;2022-09-09T13:37:57;10.32;;;5.63;;
39728;SDS011;25402;42.004;23.088;2022-09-09T13:40:25;14.32;;;5.82;;
39728;SDS011;25402;42.004;23.088;2022-09-09T13:42:54;17.23;;;6.07;;
39728;SDS011;25402;42.004;23.088;2022-09-09T13:45:23;10.55;;;5.15;;
39728;SDS011;25402;42.004;23.088;2022-09-09T13:47:52;8.23;;;5.38;;
39728;SDS011;25402;42.004;23.088;2022-09-09T13:50:21;10.23;;;4.97;;
39728;SDS011;25402;42.004;23.088;2022-09-09T13:52:51;12.68;;;5.60;;
39728;SDS011;25402;42.004;23.088;2022-09-09T13:55:25;11.82;;;5.53;;
39728;SDS011;25402;42.004;23.088;2022-09-09T13:57:54;14.20;;;5.82;;
39728;SDS011;25402;42.004;23.088;2022-09-09T14:00:23;13.52;;;5.20;;
39728;SDS011;25402;42.004;23.088;2022-09-09T14:02:51;12.82;;;5.45;;
39728;SDS011;25402;42.004;23.088;2022-09-09T14:05:20;12.95;;;5.32;;
39728;SDS011;25402;42.004;23.088;2022-09-09T14:07:47;9.70;;;5.05;;
39728;SDS011;25402;42.004;23.088;2022-09-09T14:10:15;11.48;;;5.20;;
39728;SDS011;25402;42.004;23.088;2022-09-09T14:12:43;8.55;;;5.00;;
39728;SDS011;25402;42.004;23.088;2022-09-09T14:15:11;10.23;;;5.03;;
39728;SDS011;25402;42.004;23.088;2022-09-09T14:17:39;13.90;;;5.10;;
39728;SDS011;25402;42.004;23.088;2022-09-09T14:20:07;10.80;;;5.32;;
39728;SDS011;25402;42.004;23.088;2022-09-09T14:22:35;9.80;;;5.15;;
39728;SDS011;25402;42.004;23.088;2022-09-09T14:25:04;9.68;;;5.30;;
39728;SDS011;25402;42.004;23.088;2022-09-09T14:27:32;19.20;;;5.38;;
39728;SDS011;25402;42.004;23.088;2022-09-09T14:30:00;7.75;;;4.85;;
39728;SDS011;25402;42.004;23.088;2022-09-09T14:32:27;10.65;;;5.35;;
39728;SDS011;25402;42.004;23.088;2022-09-09T14:34:54;16.52;;;5.47;;
39728;SDS011;25402;42.004;23.088;2022-09-09T14:37:21;10.07;;;5.18;;
39728;SDS011;25402;42.004;23.088;2022-09-09T14:39:49;13.90;;;5.32;;
39728;SDS011;25402;42.004;23.088;2022-09-09T14:42:16;7.13;;;4.68;;
39728;SDS011;25402;42.004;23.088;2022-09-09T14:44:44;5.55;;;4.75;;
39728;SDS011;25402;42.004;23.088;2022-09-09T14:47:12;11.27;;;4.75;;
39728;SDS011;25402;42.004;23.088;2022-09-09T14:49:39;14.95;;;5.38;;
39728;SDS011;25402;42.004;23.088;2022-09-09T14:52:06;7.05;;;4.85;;
39728;SDS011;25402;42.004;23.088;2022-09-09T14:54:34;12.15;;;5.13;;
39728;SDS011;25402;42.004;23.088;2022-09-09T14:57:01;19.77;;;5.72;;
39728;SDS011;25402;42.004;23.088;2022-09-09T14:59:28;16.08;;;5.57;;
39728;SDS011;25402;42.004;23.088;2022-09-09T15:01:55;11.75;;;5.65;;
39728;SDS011;25402;42.004;23.088;2022-09-09T15:04:23;20.25;;;5.85;;